createdAt,value
2022-09-20T00:00:49.032Z,1.30
2022-09-20T00:03:52.403Z,1.57
2022-09-20T00:06:53.983Z,1.10
2022-09-20T00:09:57.006Z,1.00
2022-09-20T00:12:58.531Z,1.20
2022-09-20T00:16:00.620Z,1.00
2022-09-20T00:19:04.188Z,0.90
2022-09-20T00:22:06.000Z,1.10
2022-09-20T00:25:08.039Z,1.17
2022-09-20T00:28:10.654Z,1.00
2022-09-20T00:31:13.112Z,0.90
2022-09-20T00:34:33.411Z,1.20
2022-09-20T00:37:35.522Z,0.80
2022-09-20T00:40:37.560Z,1.00
2022-09-20T00:43:40.888Z,0.93
2022-09-20T00:46:43.606Z,0.87
2022-09-20T00:49:45.449Z,0.80
2022-09-20T00:52:48.631Z,0.80
2022-09-20T00:56:10.487Z,0.80
2022-09-20T00:59:18.236Z,0.70
2022-09-20T01:02:23.221Z,0.70
2022-09-20T01:05:25.540Z,1.10
2022-09-20T01:08:27.257Z,0.70
2022-09-20T01:11:29.511Z,0.60
2022-09-20T01:14:31.434Z,0.70
2022-09-20T01:17:34.799Z,0.70
2022-09-20T01:20:42.008Z,0.70
2022-09-20T01:23:50.875Z,0.60
2022-09-20T01:26:52.523Z,0.60
2022-09-20T01:30:08.191Z,0.67
2022-09-20T01:33:13.911Z,0.60
2022-09-20T01:36:38.117Z,0.80
2022-09-20T01:39:39.724Z,1.00
2022-09-20T01:42:50.006Z,0.80
2022-09-20T01:45:52.879Z,0.80
2022-09-20T01:49:00.514Z,0.80
2022-09-20T01:52:02.069Z,1.10
2022-09-20T01:55:03.595Z,0.80
2022-09-20T01:58:08.222Z,0.90
2022-09-20T02:01:33.459Z,0.90
2022-09-20T02:04:53.491Z,0.93
2022-09-20T02:08:09.122Z,1.00
2022-09-20T02:11:10.782Z,1.20
2022-09-20T02:14:34.723Z,1.10
2022-09-20T02:17:45.457Z,2.10
2022-09-20T02:20:58.999Z,1.10
2022-09-20T02:24:12.283Z,1.20
2022-09-20T02:27:22.899Z,1.07
2022-09-20T02:30:33.379Z,1.30
2022-09-20T02:33:49.022Z,1.20
2022-09-20T02:37:02.927Z,1.20
2022-09-20T02:40:17.096Z,1.30
2022-09-20T02:43:18.682Z,1.53
2022-09-20T02:46:26.363Z,1.30
2022-09-20T02:49:46.507Z,1.50
2022-09-20T02:52:48.089Z,1.57
2022-09-20T02:55:52.714Z,1.67
2022-09-20T02:59:05.643Z,2.30
2022-09-20T03:02:10.966Z,1.90
2022-09-20T03:05:32.881Z,1.90
2022-09-20T03:08:37.561Z,2.30
2022-09-20T03:11:42.093Z,2.10
2022-09-20T03:14:43.699Z,2.30
2022-09-20T03:17:49.356Z,2.07
2022-09-20T03:20:59.846Z,2.20
2022-09-20T03:24:06.895Z,2.37
2022-09-20T03:27:17.312Z,2.90
2022-09-20T03:30:18.885Z,2.30
2022-09-20T03:33:26.410Z,2.50
2022-09-20T03:36:46.663Z,2.53
2022-09-20T03:39:51.305Z,2.43
2022-09-20T03:42:53.627Z,2.50
2022-09-20T03:46:02.282Z,2.50
2022-09-20T03:49:19.808Z,2.53
2022-09-20T03:52:21.355Z,2.20
2022-09-20T03:55:25.794Z,2.30
2022-09-20T03:58:33.336Z,2.30
2022-09-20T04:01:34.913Z,2.63
2022-09-20T04:04:42.063Z,2.20
2022-09-20T04:07:58.985Z,2.80
2022-09-20T04:11:19.272Z,2.40
2022-09-20T04:14:30.087Z,3.00
2022-09-20T04:17:31.633Z,2.67
2022-09-20T04:20:36.203Z,2.77
2022-09-20T04:24:00.878Z,3.17
2022-09-20T04:27:05.884Z,2.67
2022-09-20T04:30:07.735Z,10.80
2022-09-20T04:33:20.717Z,3.00
2022-09-20T04:36:31.538Z,4.20
2022-09-20T04:39:51.956Z,3.17
2022-09-20T04:43:12.440Z,2.40
2022-09-20T04:46:32.721Z,3.30
2022-09-20T04:49:53.191Z,3.60
2022-09-20T04:53:14.719Z,5.23
2022-09-20T04:56:35.221Z,5.27
2022-09-20T04:59:42.862Z,5.10
2022-09-20T05:03:03.185Z,4.97
2022-09-20T05:06:15.668Z,5.47
2022-09-20T05:09:23.116Z,3.57
2022-09-20T05:12:30.565Z,3.93
2022-09-20T05:15:38.379Z,3.87
2022-09-20T05:18:59.495Z,4.00
2022-09-20T05:22:08.946Z,5.67
2022-09-20T05:25:29.770Z,3.57
2022-09-20T05:28:37.235Z,3.30
2022-09-20T05:31:44.986Z,2.80
2022-09-20T05:34:51.556Z,2.70
2022-09-20T05:38:02.296Z,3.47
2022-09-20T05:41:08.688Z,2.90
2022-09-20T05:44:28.992Z,2.73
2022-09-20T05:47:30.576Z,2.60
2022-09-20T05:50:35.385Z,2.77
2022-09-20T05:53:49.056Z,2.70
2022-09-20T05:56:59.537Z,2.80
2022-09-20T06:00:01.114Z,2.77
2022-09-20T06:03:02.737Z,2.30
2022-09-20T06:06:14.663Z,2.70
2022-09-20T06:09:27.863Z,3.00
2022-09-20T06:12:35.849Z,2.53
2022-09-20T06:16:00.754Z,2.70
2022-09-20T06:19:13.360Z,2.50
2022-09-20T06:22:15.184Z,2.67
2022-09-20T06:25:20.247Z,2.93
2022-09-20T06:28:34.116Z,2.17
2022-09-20T06:31:35.690Z,2.40
2022-09-20T06:34:37.421Z,2.07
2022-09-20T06:38:08.759Z,2.07
2022-09-20T06:41:29.135Z,1.80
2022-09-20T06:44:32.305Z,1.67
2022-09-20T06:47:38.559Z,1.40
2022-09-20T06:50:43.466Z,1.43
2022-09-20T06:53:45.048Z,1.60
2022-09-20T06:56:47.426Z,1.30
2022-09-20T06:59:49.072Z,1.70
2022-09-20T07:02:50.610Z,2.27
2022-09-20T07:05:52.372Z,2.40
2022-09-20T07:08:53.981Z,1.93
2022-09-20T07:11:56.399Z,1.90
2022-09-20T07:14:57.940Z,1.20
2022-09-20T07:18:02.583Z,1.50
2022-09-20T07:21:06.318Z,1.80
2022-09-20T07:24:07.988Z,1.50
2022-09-20T07:27:11.495Z,2.00
2022-09-20T07:30:14.515Z,0.87
2022-09-20T07:33:21.587Z,1.10
2022-09-20T07:36:23.195Z,0.60
2022-09-20T07:39:24.806Z,0.90
2022-09-20T07:42:27.056Z,2.10
2022-09-20T07:45:28.910Z,0.97
2022-09-20T07:48:35.161Z,1.23
2022-09-20T07:51:36.826Z,1.17
2022-09-20T07:54:38.745Z,1.07
2022-09-20T07:57:40.380Z,0.80
2022-09-20T08:00:41.968Z,1.40
2022-09-20T08:03:45.004Z,0.50
2022-09-20T08:06:46.689Z,0.60
2022-09-20T08:09:48.262Z,0.80
2022-09-20T08:16:13.421Z,0.70
2022-09-20T08:19:19.374Z,0.90
2022-09-20T08:22:23.205Z,1.00
2022-09-20T08:25:24.949Z,0.97
2022-09-20T08:28:26.525Z,0.90
2022-09-20T08:31:34.364Z,0.90
2022-09-20T08:34:36.168Z,0.80
2022-09-20T08:37:38.030Z,0.90
2022-09-20T08:40:39.735Z,0.93
2022-09-20T08:44:01.971Z,0.70
2022-09-20T08:47:06.553Z,0.53
2022-09-20T08:50:10.295Z,0.70
2022-09-20T08:53:14.957Z,0.73
2022-09-20T08:56:17.199Z,0.70
2022-09-20T08:59:20.519Z,0.77
2022-09-20T09:02:22.693Z,0.70
2022-09-20T09:05:27.123Z,0.97
2022-09-20T09:08:31.072Z,0.90
2022-09-20T09:11:33.550Z,0.90
2022-09-20T09:14:55.297Z,0.67
2022-09-20T09:17:56.825Z,0.67
2022-09-20T09:20:58.878Z,0.80
2022-09-20T09:24:12.826Z,0.60
2022-09-20T09:27:52.115Z,0.80
2022-09-20T09:31:32.708Z,1.50
2022-09-20T09:34:38.657Z,1.37
2022-09-20T09:37:47.559Z,0.60
2022-09-20T09:40:50.899Z,0.50
2022-09-20T09:44:01.661Z,0.60
2022-09-20T09:47:03.331Z,3.07
2022-09-20T09:50:09.748Z,1.10
2022-09-20T09:53:13.607Z,0.80
2022-09-20T09:56:15.506Z,0.70
2022-09-20T09:59:22.093Z,1.17
2022-09-20T10:02:42.652Z,0.77
2022-09-20T10:06:04.629Z,0.90
2022-09-20T10:09:23.047Z,0.60
2022-09-20T10:12:27.639Z,0.50
2022-09-20T10:15:47.718Z,0.60
2022-09-20T10:18:55.195Z,0.60
2022-09-20T10:22:03.287Z,0.80
2022-09-20T10:25:13.972Z,0.53
2022-09-20T10:28:28.049Z,0.50
2022-09-20T10:31:40.322Z,0.60
2022-09-20T10:34:57.720Z,0.80
2022-09-20T10:38:05.541Z,1.60
2022-09-20T10:41:31.742Z,0.73
2022-09-20T10:44:46.819Z,0.80
2022-09-20T10:48:24.216Z,0.80
2022-09-20T10:51:47.438Z,0.60
2022-09-20T10:55:12.884Z,0.70
2022-09-20T10:58:39.385Z,0.63
2022-09-20T11:01:41.194Z,0.87
2022-09-20T11:05:01.743Z,0.70
2022-09-20T11:08:06.206Z,0.70
2022-09-20T11:11:19.392Z,0.60
2022-09-20T11:14:23.556Z,0.40
2022-09-20T11:17:39.142Z,0.50
2022-09-20T11:20:59.602Z,0.90
2022-09-20T11:24:13.267Z,0.70
2022-09-20T11:27:23.043Z,0.83
2022-09-20T11:30:25.171Z,1.47
2022-09-20T11:33:32.905Z,0.50
2022-09-20T11:36:42.817Z,0.77
2022-09-20T11:39:59.537Z,1.37
2022-09-20T11:43:02.705Z,1.63
2022-09-20T11:46:06.884Z,0.60
2022-09-20T11:49:11.627Z,0.63
2022-09-20T11:52:31.233Z,0.53
2022-09-20T11:55:38.812Z,0.50
2022-09-20T11:58:51.113Z,0.63
2022-09-20T12:01:54.532Z,0.50
2022-09-20T12:04:56.668Z,1.33
2022-09-20T12:07:59.663Z,0.70
2022-09-20T12:11:05.987Z,0.50
2022-09-20T12:14:17.644Z,0.67
2022-09-20T12:17:37.725Z,0.50
2022-09-20T12:20:39.334Z,0.60
2022-09-20T12:23:41.288Z,0.70
2022-09-20T12:26:44.108Z,0.80
2022-09-20T12:30:11.799Z,0.80
2022-09-20T12:33:20.876Z,0.60
2022-09-20T12:36:22.557Z,1.07
2022-09-20T12:39:29.705Z,0.60
2022-09-20T12:42:33.111Z,0.40
2022-09-20T12:45:35.494Z,0.33
2022-09-20T12:48:37.495Z,0.60
2022-09-20T12:51:57.871Z,0.87
2022-09-20T12:55:04.697Z,0.80
2022-09-20T12:58:17.251Z,0.77
2022-09-20T13:01:18.883Z,0.60
2022-09-20T13:04:47.180Z,1.07
2022-09-20T13:07:53.683Z,0.70
2022-09-20T13:11:01.099Z,0.70
2022-09-20T13:14:02.727Z,0.80
2022-09-20T13:17:15.993Z,1.30
2022-09-20T13:20:20.352Z,0.50
2022-09-20T13:23:25.219Z,0.90
2022-09-20T13:26:30.105Z,0.90
2022-09-20T13:29:42.279Z,0.70
2022-09-20T13:32:44.335Z,0.50
2022-09-20T13:35:47.124Z,0.73
2022-09-20T13:38:49.523Z,0.67
2022-09-20T13:41:51.333Z,0.90
2022-09-20T13:44:53.032Z,2.10
2022-09-20T13:47:56.079Z,0.80
2022-09-20T13:50:58.354Z,1.27
2022-09-20T13:54:18.770Z,0.60
2022-09-20T13:57:22.439Z,2.30
2022-09-20T14:00:25.287Z,0.90
2022-09-20T14:03:27.891Z,0.63
2022-09-20T14:06:29.842Z,1.00
2022-09-20T14:09:34.041Z,0.53
2022-09-20T14:12:35.835Z,0.83
2022-09-20T14:15:38.333Z,1.20
2022-09-20T14:18:40.931Z,0.73
2022-09-20T14:21:43.544Z,0.70
2022-09-20T14:24:56.721Z,0.50
2022-09-20T14:28:18.703Z,0.60
2022-09-20T14:31:23.515Z,0.70
2022-09-20T14:34:25.409Z,1.00
2022-09-20T14:37:35.219Z,1.20
2022-09-20T14:40:47.235Z,1.20
2022-09-20T14:43:53.949Z,1.00
2022-09-20T14:46:55.591Z,0.83
2022-09-20T14:49:58.785Z,1.50
2022-09-20T14:53:21.563Z,1.00
2022-09-20T14:56:27.293Z,0.90
2022-09-20T14:59:35.566Z,0.87
2022-09-20T15:02:37.384Z,1.40
2022-09-20T15:05:39.792Z,0.87
2022-09-20T15:08:45.694Z,1.37
2022-09-20T15:11:58.523Z,1.00
2022-09-20T15:15:00.185Z,0.80
2022-09-20T15:18:01.778Z,0.70
2022-09-20T15:21:04.072Z,0.80
2022-09-20T15:24:05.861Z,0.80
2022-09-20T15:27:07.610Z,1.20
2022-09-20T15:30:10.175Z,1.40
2022-09-20T15:33:12.274Z,1.30
2022-09-20T15:36:13.893Z,1.17
2022-09-20T15:39:15.589Z,1.30
2022-09-20T15:42:17.170Z,1.10
2022-09-20T15:45:19.696Z,2.10
2022-09-20T15:48:22.906Z,0.90
2022-09-20T15:51:24.751Z,2.90
2022-09-20T15:54:26.767Z,1.60
2022-09-20T15:57:28.436Z,1.50
2022-09-20T16:00:30.098Z,1.60
2022-09-20T16:03:32.595Z,0.90
2022-09-20T16:06:34.292Z,1.40
2022-09-20T16:09:37.895Z,1.80
2022-09-20T16:12:39.521Z,1.00
2022-09-20T16:15:42.406Z,2.13
2022-09-20T16:19:02.695Z,1.80
2022-09-20T16:22:04.744Z,2.23
2022-09-20T16:25:06.681Z,2.30
2022-09-20T16:28:08.273Z,2.10
2022-09-20T16:31:28.794Z,2.43
2022-09-20T16:34:31.893Z,2.20
2022-09-20T16:37:33.517Z,4.40
2022-09-20T16:40:35.199Z,3.77
2022-09-20T16:43:37.974Z,4.60
2022-09-20T16:46:40.180Z,7.37
2022-09-20T16:49:41.772Z,4.00
2022-09-20T16:52:43.393Z,3.73
2022-09-20T16:55:45.307Z,3.20
2022-09-20T16:58:47.300Z,3.67
2022-09-20T17:01:49.270Z,3.40
2022-09-20T17:04:50.941Z,3.60
2022-09-20T17:07:54.177Z,3.40
2022-09-20T17:11:02.574Z,3.03
2022-09-20T17:14:04.653Z,4.07
2022-09-20T17:17:06.495Z,3.20
2022-09-20T17:20:08.343Z,2.47
2022-09-20T17:23:09.933Z,2.50
2022-09-20T17:26:13.764Z,2.60
2022-09-20T17:29:18.330Z,2.40
2022-09-20T17:32:20.510Z,2.73
2022-09-20T17:35:22.124Z,2.40
2022-09-20T17:38:23.675Z,2.60
2022-09-20T17:41:25.513Z,2.73
2022-09-20T17:44:27.554Z,2.90
2022-09-20T17:47:29.221Z,3.00
2022-09-20T17:50:32.086Z,2.60
2022-09-20T17:53:35.175Z,2.60
2022-09-20T17:56:37.191Z,2.37
2022-09-20T17:59:38.859Z,2.40
2022-09-20T18:02:40.469Z,2.30
2022-09-20T18:05:42.633Z,2.20
2022-09-20T18:08:48.569Z,2.07
2022-09-20T18:11:51.235Z,3.40
2022-09-20T18:14:53.805Z,5.63
2022-09-20T18:17:55.565Z,6.80
2022-09-20T18:20:57.239Z,7.57
2022-09-20T18:23:59.203Z,6.53
2022-09-20T18:27:01.031Z,4.47
2022-09-20T18:30:03.083Z,2.70
2022-09-20T18:33:04.836Z,4.30
2022-09-20T18:36:06.558Z,4.87
2022-09-20T18:39:08.261Z,4.17
2022-09-20T18:42:10.394Z,2.60
2022-09-20T18:45:11.941Z,2.10
2022-09-20T18:48:13.906Z,2.57
2022-09-20T18:51:16.076Z,2.50
2022-09-20T18:54:20.117Z,2.90
2022-09-20T18:57:21.883Z,2.60
2022-09-20T19:00:23.552Z,2.90
2022-09-20T19:03:32.713Z,2.70
2022-09-20T19:06:41.892Z,2.30
2022-09-20T19:09:49.672Z,2.67
2022-09-20T19:13:16.119Z,2.20
2022-09-20T19:16:23.898Z,2.20
2022-09-20T19:19:43.948Z,3.10
2022-09-20T19:22:59.513Z,2.23
2022-09-20T19:26:21.887Z,2.40
2022-09-20T19:29:25.313Z,2.40
2022-09-20T19:32:27.707Z,2.97
2022-09-20T19:35:32.415Z,2.30
2022-09-20T19:38:43.463Z,2.90
2022-09-20T19:41:58.148Z,2.70
2022-09-20T19:45:18.061Z,2.80
2022-09-20T19:48:28.520Z,2.60
2022-09-20T19:51:32.200Z,2.20
2022-09-20T19:54:33.842Z,2.40
2022-09-20T19:57:39.837Z,2.10
2022-09-20T20:00:45.759Z,1.93
2022-09-20T20:03:48.222Z,2.50
2022-09-20T20:06:52.795Z,2.00
2022-09-20T20:10:00.609Z,1.90
2022-09-20T20:13:26.294Z,2.00
2022-09-20T20:16:41.536Z,2.37
2022-09-20T20:19:49.206Z,1.97
2022-09-20T20:23:09.803Z,2.10
2022-09-20T20:26:19.941Z,1.93
2022-09-20T20:29:21.661Z,2.30
2022-09-20T20:32:23.720Z,2.07
2022-09-20T20:35:26.078Z,2.00
2022-09-20T20:38:28.020Z,2.30
2022-09-20T20:41:31.903Z,2.20
2022-09-20T20:44:36.835Z,2.00
2022-09-20T20:47:40.031Z,1.97
2022-09-20T20:50:41.670Z,2.20
2022-09-20T20:53:46.484Z,2.30
2022-09-20T20:56:48.109Z,2.40
2022-09-20T20:59:49.644Z,2.30
2022-09-20T21:02:58.450Z,2.13
2022-09-20T21:06:00.153Z,2.60
2022-09-20T21:09:02.954Z,2.33
2022-09-20T21:12:05.130Z,2.30
2022-09-20T21:15:06.859Z,2.37
2022-09-20T21:18:08.452Z,2.50
2022-09-20T21:21:17.579Z,2.20
2022-09-20T21:24:19.263Z,2.23
2022-09-20T21:27:21.014Z,2.07
2022-09-20T21:30:22.539Z,2.03
2022-09-20T21:33:25.726Z,2.30
2022-09-20T21:36:28.433Z,2.30
2022-09-20T21:39:30.061Z,2.93
2022-09-20T21:42:31.675Z,2.33
2022-09-20T21:45:34.995Z,2.63
2022-09-20T21:48:36.756Z,2.33
2022-09-20T21:51:39.076Z,2.60
2022-09-20T21:54:40.716Z,2.50
2022-09-20T21:57:42.270Z,2.30
2022-09-20T22:00:43.922Z,2.33
2022-09-20T22:03:49.254Z,2.27
2022-09-20T22:06:50.899Z,2.30
2022-09-20T22:09:52.472Z,2.27
2022-09-20T22:12:54.254Z,2.47
2022-09-20T22:16:03.205Z,2.60
2022-09-20T22:19:05.526Z,2.50
2022-09-20T22:22:07.172Z,2.43
2022-09-20T22:25:08.846Z,2.40
2022-09-20T22:28:10.432Z,2.63
2022-09-20T22:31:13.382Z,2.37
2022-09-20T22:34:16.148Z,2.17
2022-09-20T22:37:17.707Z,2.50
2022-09-20T22:40:19.891Z,2.30
2022-09-20T22:43:21.810Z,2.30
2022-09-20T22:46:24.727Z,2.47
2022-09-20T22:49:26.337Z,2.40
2022-09-20T22:52:27.986Z,2.50
2022-09-20T22:55:29.727Z,2.60
2022-09-20T22:58:35.226Z,2.53
2022-09-20T23:01:44.228Z,2.33
2022-09-20T23:04:45.962Z,2.50
2022-09-20T23:07:50.603Z,2.63
2022-09-20T23:11:02.327Z,2.70
2022-09-20T23:14:05.118Z,2.70
2022-09-20T23:17:06.745Z,2.70
2022-09-20T23:20:08.509Z,2.77
2022-09-20T23:23:10.099Z,2.73
2022-09-20T23:26:11.709Z,3.07
2022-09-20T23:29:14.999Z,2.77
2022-09-20T23:32:16.589Z,2.90
2022-09-20T23:35:18.959Z,2.80
2022-09-20T23:38:20.590Z,2.83
2022-09-20T23:41:23.179Z,2.87
2022-09-20T23:44:24.784Z,2.60
2022-09-20T23:47:26.406Z,2.67
2022-09-20T23:50:27.981Z,3.00
2022-09-20T23:53:29.580Z,2.87
2022-09-20T23:56:31.397Z,2.80
2022-09-20T23:59:33.242Z,3.00
